createdAt,value
2019-05-09T00:01:23.743Z,49.10
2019-05-09T00:03:54.452Z,49.80
2019-05-09T00:06:25.477Z,49.70
2019-05-09T00:08:56.233Z,49.90
2019-05-09T00:11:27.078Z,49.50
2019-05-09T00:13:57.490Z,48.80
2019-05-09T00:16:27.900Z,48.70
2019-05-09T00:18:58.402Z,49.20
2019-05-09T00:21:33.382Z,49.50
2019-05-09T00:24:03.841Z,49.80
2019-05-09T00:26:34.241Z,49.20
2019-05-09T00:29:06.475Z,48.60
2019-05-09T00:31:44.072Z,48.70
2019-05-09T00:34:33.802Z,49.10
2019-05-09T00:37:04.310Z,49.20
2019-05-09T00:39:34.766Z,49.40
2019-05-09T00:42:05.274Z,48.90
2019-05-09T00:44:43.151Z,48.50
2019-05-09T00:47:24.025Z,48.60
2019-05-09T00:49:54.876Z,49.30
2019-05-09T00:52:25.746Z,49.80
2019-05-09T00:54:56.456Z,49.30
2019-05-09T00:57:36.207Z,48.80
2019-05-09T01:00:18.481Z,48.60
2019-05-09T01:02:48.900Z,49.50
2019-05-09T01:05:19.818Z,49.80
2019-05-09T01:07:50.923Z,49.90
2019-05-09T01:10:23.527Z,49.60
2019-05-09T01:12:54.242Z,48.80
2019-05-09T01:15:24.892Z,48.60
2019-05-09T01:17:55.637Z,49.20
2019-05-09T01:20:26.319Z,49.60
2019-05-09T01:22:57.151Z,49.70
2019-05-09T01:25:27.989Z,49.50
2019-05-09T01:27:58.615Z,48.70
2019-05-09T01:30:30.466Z,48.50
2019-05-09T01:33:05.504Z,49.00
2019-05-09T01:35:35.990Z,49.40
2019-05-09T01:38:06.731Z,49.50
2019-05-09T01:40:37.232Z,49.30
2019-05-09T01:43:07.665Z,48.60
2019-05-09T01:45:38.339Z,48.70
2019-05-09T01:48:08.998Z,49.30
2019-05-09T01:50:39.720Z,49.30
2019-05-09T01:53:10.354Z,49.60
2019-05-09T01:55:58.917Z,48.90
2019-05-09T01:58:34.272Z,48.50
2019-05-09T02:01:06.978Z,49.40
2019-05-09T02:03:37.824Z,49.30
2019-05-09T02:06:08.220Z,49.40
2019-05-09T02:08:38.794Z,49.00
2019-05-09T02:11:09.423Z,48.50
2019-05-09T02:13:39.860Z,48.50
2019-05-09T02:16:23.516Z,49.00
2019-05-09T02:18:55.618Z,49.10
2019-05-09T02:21:26.203Z,49.10
2019-05-09T02:23:57.074Z,49.20
2019-05-09T02:26:27.583Z,48.40
2019-05-09T02:28:57.979Z,48.20
2019-05-09T02:31:28.741Z,48.40
2019-05-09T02:33:59.227Z,48.90
2019-05-09T02:36:29.706Z,48.90
2019-05-09T02:39:00.604Z,48.90
2019-05-09T02:41:30.972Z,48.90
2019-05-09T02:44:01.380Z,48.90
2019-05-09T02:46:33.564Z,48.00
2019-05-09T02:49:04.098Z,48.10
2019-05-09T02:51:34.472Z,48.50
2019-05-09T02:54:05.311Z,48.70
2019-05-09T02:56:38.474Z,48.80
2019-05-09T02:59:12.207Z,48.70
2019-05-09T03:01:52.665Z,48.80
2019-05-09T03:04:23.147Z,48.10
2019-05-09T03:07:12.813Z,47.70
2019-05-09T03:09:43.586Z,48.00
2019-05-09T03:12:26.031Z,48.50
2019-05-09T03:14:48.730Z,48.50
2019-05-09T03:17:18.694Z,48.50
2019-05-09T03:19:49.397Z,48.40
2019-05-09T03:22:21.515Z,48.40
2019-05-09T03:24:52.063Z,48.40
2019-05-09T03:27:38.946Z,48.00
2019-05-09T03:30:11.983Z,47.70
2019-05-09T03:32:42.066Z,47.90
2019-05-09T03:35:12.905Z,48.20
2019-05-09T03:37:43.316Z,48.30
2019-05-09T03:40:14.068Z,48.20
2019-05-09T03:42:44.770Z,48.20
2019-05-09T03:45:18.247Z,48.20
2019-05-09T03:47:49.956Z,48.20
2019-05-09T03:50:20.846Z,48.10
2019-05-09T03:52:51.260Z,48.00
2019-05-09T03:55:23.383Z,47.90
2019-05-09T03:58:04.326Z,47.90
2019-05-09T04:00:37.449Z,47.90
2019-05-09T04:03:08.123Z,47.90
2019-05-09T04:05:39.086Z,47.90
2019-05-09T04:08:19.303Z,47.90
2019-05-09T04:10:51.386Z,47.90
2019-05-09T04:13:23.694Z,47.90
2019-05-09T04:15:54.497Z,47.80
2019-05-09T04:18:24.984Z,47.70
2019-05-09T04:20:57.201Z,47.10
2019-05-09T04:23:27.645Z,46.90
2019-05-09T04:25:59.646Z,47.10
2019-05-09T04:28:30.098Z,47.30
2019-05-09T04:31:01.031Z,47.40
2019-05-09T04:33:31.919Z,47.40
2019-05-09T04:36:02.604Z,47.50
2019-05-09T04:38:33.284Z,47.50
2019-05-09T04:41:03.712Z,47.50
2019-05-09T04:43:37.483Z,47.40
2019-05-09T04:46:08.050Z,48.10
2019-05-09T04:48:38.785Z,47.40
2019-05-09T04:51:09.516Z,47.40
2019-05-09T04:53:40.457Z,47.40
2019-05-09T04:56:24.361Z,47.40
2019-05-09T04:58:55.025Z,47.40
2019-05-09T05:01:28.253Z,47.40
2019-05-09T05:03:59.571Z,47.40
2019-05-09T05:06:30.388Z,47.50
2019-05-09T05:09:00.806Z,47.40
2019-05-09T05:11:31.883Z,47.30
2019-05-09T05:14:02.680Z,47.30
2019-05-09T05:16:33.134Z,47.20
2019-05-09T05:19:04.294Z,47.20
2019-05-09T05:21:34.922Z,47.40
2019-05-09T05:24:09.804Z,47.50
2019-05-09T05:26:40.222Z,47.50
2019-05-09T05:29:10.913Z,47.50
2019-05-09T05:31:41.389Z,47.50
2019-05-09T05:34:19.947Z,47.50
2019-05-09T05:36:50.498Z,47.50
2019-05-09T05:39:21.463Z,47.40
2019-05-09T05:41:51.940Z,47.30
2019-05-09T05:44:22.615Z,47.30
2019-05-09T05:46:54.684Z,47.20
2019-05-09T05:49:27.827Z,47.20
2019-05-09T05:51:58.152Z,47.30
2019-05-09T05:54:28.961Z,47.30
2019-05-09T05:56:59.697Z,47.40
2019-05-09T05:59:30.083Z,47.30
2019-05-09T06:02:00.711Z,47.50
2019-05-09T06:04:31.133Z,47.50
2019-05-09T06:07:01.561Z,47.50
2019-05-09T06:09:31.966Z,47.30
2019-05-09T06:12:02.714Z,47.40
2019-05-09T06:14:33.312Z,47.30
2019-05-09T06:17:04.017Z,47.20
2019-05-09T06:19:34.757Z,47.20
2019-05-09T06:22:07.825Z,47.20
2019-05-09T06:24:38.662Z,47.30
2019-05-09T06:27:10.572Z,47.40
2019-05-09T06:29:41.602Z,47.40
2019-05-09T06:32:12.010Z,47.40
2019-05-09T06:34:42.561Z,48.10
2019-05-09T06:37:12.997Z,47.40
2019-05-09T06:39:43.473Z,47.40
2019-05-09T06:42:14.439Z,47.20
2019-05-09T06:44:52.709Z,47.20
2019-05-09T06:47:33.640Z,47.30
2019-05-09T06:50:09.070Z,47.40
2019-05-09T06:52:39.874Z,47.40
2019-05-09T06:55:10.487Z,47.50
2019-05-09T06:57:43.080Z,47.50
2019-05-09T07:00:14.506Z,47.50
2019-05-09T07:02:52.519Z,47.50
2019-05-09T07:05:29.834Z,47.30
2019-05-09T07:08:04.716Z,47.30
2019-05-09T07:10:37.180Z,47.30
2019-05-09T07:13:07.914Z,47.20
2019-05-09T07:15:38.949Z,47.40
2019-05-09T07:18:09.313Z,47.70
2019-05-09T07:20:39.718Z,47.90
2019-05-09T07:23:10.365Z,48.20
2019-05-09T07:25:42.130Z,48.20
2019-05-09T07:28:12.801Z,48.30
2019-05-09T07:30:48.158Z,48.30
2019-05-09T07:33:32.421Z,48.20
2019-05-09T07:36:02.866Z,48.30
2019-05-09T07:38:33.958Z,48.20
2019-05-09T07:41:04.365Z,48.10
2019-05-09T07:43:34.842Z,48.10
2019-05-09T07:46:08.798Z,48.00
2019-05-09T07:48:41.742Z,48.10
2019-05-09T07:51:12.215Z,48.00
2019-05-09T07:53:42.811Z,48.00
2019-05-09T07:56:13.583Z,48.10
2019-05-09T07:58:43.978Z,48.00
2019-05-09T08:01:15.077Z,48.00
2019-05-09T08:03:46.180Z,47.90
2019-05-09T08:06:18.327Z,48.00
2019-05-09T08:08:49.102Z,48.00
2019-05-09T08:11:19.515Z,48.00
2019-05-09T08:13:49.959Z,47.90
2019-05-09T08:16:20.920Z,47.90
2019-05-09T08:18:51.633Z,47.90
2019-05-09T08:21:22.412Z,47.90
2019-05-09T08:23:53.073Z,47.90
2019-05-09T08:26:23.490Z,47.90
2019-05-09T08:28:53.860Z,47.80
2019-05-09T08:31:24.316Z,47.70
2019-05-09T08:33:54.732Z,47.80
2019-05-09T08:36:25.377Z,47.70
2019-05-09T08:38:58.340Z,47.80
2019-05-09T08:41:29.266Z,47.80
2019-05-09T08:44:00.229Z,47.70
2019-05-09T08:46:31.219Z,47.70
2019-05-09T08:49:01.648Z,47.70
2019-05-09T08:51:49.361Z,47.70
2019-05-09T08:54:09.419Z,47.70
2019-05-09T08:56:39.900Z,47.60
2019-05-09T08:59:10.808Z,47.60
2019-05-09T09:02:10.020Z,47.60
2019-05-09T09:04:13.905Z,47.60
2019-05-09T09:06:44.394Z,47.70
2019-05-09T09:09:15.296Z,47.70
2019-05-09T09:11:47.786Z,47.60
2019-05-09T09:14:18.491Z,47.60
2019-05-09T09:16:49.342Z,47.60
2019-05-09T09:19:19.901Z,47.60
2019-05-09T09:21:50.308Z,47.70
2019-05-09T09:24:20.743Z,47.60
2019-05-09T09:26:51.561Z,47.60
2019-05-09T09:29:21.960Z,47.50
2019-05-09T09:31:52.390Z,47.50
2019-05-09T09:34:23.103Z,47.50
2019-05-09T09:36:53.593Z,47.60
2019-05-09T09:39:24.344Z,47.50
2019-05-09T09:41:55.225Z,47.50
2019-05-09T09:44:25.653Z,47.50
2019-05-09T09:46:58.120Z,47.60
2019-05-09T09:49:29.367Z,47.50
2019-05-09T09:52:00.340Z,47.40
2019-05-09T09:54:31.029Z,47.40
2019-05-09T09:57:02.052Z,47.40
2019-05-09T09:59:58.546Z,47.40
2019-05-09T10:02:33.739Z,47.50
2019-05-09T10:05:04.757Z,47.40
2019-05-09T10:07:35.133Z,47.40
2019-05-09T10:10:09.188Z,47.40
2019-05-09T10:12:44.310Z,47.40
2019-05-09T10:15:14.650Z,47.50
2019-05-09T10:17:47.697Z,47.40
2019-05-09T10:20:37.880Z,47.30
2019-05-09T10:23:17.013Z,47.30
2019-05-09T10:25:39.684Z,47.30
2019-05-09T10:28:10.401Z,47.30
2019-05-09T10:30:40.888Z,47.40
2019-05-09T10:33:11.334Z,47.30
2019-05-09T10:35:42.109Z,47.30
2019-05-09T10:38:12.783Z,47.30
2019-05-09T10:40:43.337Z,47.30
2019-05-09T10:43:15.118Z,47.30
2019-05-09T10:45:57.965Z,47.30
2019-05-09T10:48:28.588Z,47.30
2019-05-09T10:51:04.096Z,47.30
2019-05-09T10:53:31.311Z,47.20
2019-05-09T10:56:01.868Z,47.20
2019-05-09T10:58:32.778Z,47.80
2019-05-09T11:01:03.450Z,47.30
2019-05-09T11:03:33.858Z,47.20
2019-05-09T11:06:04.352Z,47.30
2019-05-09T11:08:34.957Z,47.30
2019-05-09T11:11:06.160Z,47.20
2019-05-09T11:13:39.079Z,47.20
2019-05-09T11:16:09.620Z,47.30
2019-05-09T11:18:40.147Z,47.20
2019-05-09T11:21:10.755Z,47.30
2019-05-09T11:23:41.523Z,47.20
2019-05-09T11:26:11.972Z,47.10
2019-05-09T11:28:42.530Z,47.20
2019-05-09T11:31:13.417Z,47.20
2019-05-09T11:33:44.455Z,47.10
2019-05-09T11:36:17.466Z,47.10
2019-05-09T11:38:49.896Z,47.20
2019-05-09T11:41:20.887Z,47.10
2019-05-09T11:43:51.267Z,47.20
2019-05-09T11:46:22.068Z,47.20
2019-05-09T11:48:52.817Z,47.10
2019-05-09T11:51:23.220Z,47.20
2019-05-09T11:53:53.652Z,47.10
2019-05-09T11:56:24.567Z,47.10
2019-05-09T11:58:57.712Z,47.10
2019-05-09T12:01:29.186Z,47.10
2019-05-09T12:03:59.609Z,47.10
2019-05-09T12:06:30.448Z,47.10
2019-05-09T12:09:00.904Z,47.10
2019-05-09T12:11:31.709Z,47.10
2019-05-09T12:14:02.120Z,47.10
2019-05-09T12:16:32.812Z,47.10
2019-05-09T12:19:03.566Z,47.10
2019-05-09T12:21:34.156Z,47.80
2019-05-09T12:24:08.815Z,47.10
2019-05-09T12:26:39.081Z,47.10
2019-05-09T12:29:09.795Z,47.10
2019-05-09T12:31:40.184Z,47.10
2019-05-09T12:34:10.592Z,47.10
2019-05-09T12:36:41.191Z,47.10
2019-05-09T12:39:11.595Z,47.10
2019-05-09T12:41:42.543Z,47.10
2019-05-09T12:44:13.004Z,47.10
2019-05-09T12:46:43.582Z,47.10
2019-05-09T12:49:14.119Z,47.10
2019-05-09T12:51:44.956Z,47.20
2019-05-09T12:54:15.603Z,47.10
2019-05-09T12:56:48.361Z,47.10
2019-05-09T12:59:18.948Z,47.10
2019-05-09T13:01:50.139Z,47.10
2019-05-09T13:04:20.984Z,47.70
2019-05-09T13:06:51.569Z,47.10
2019-05-09T13:09:21.976Z,47.10
2019-05-09T13:11:52.849Z,47.10
2019-05-09T13:14:24.034Z,47.10
2019-05-09T13:17:01.810Z,47.10
2019-05-09T13:19:38.194Z,47.10
2019-05-09T13:22:08.892Z,47.10
2019-05-09T13:24:39.263Z,47.10
2019-05-09T13:27:09.858Z,47.10
2019-05-09T13:29:40.246Z,47.10
2019-05-09T13:32:10.776Z,47.10
2019-05-09T13:34:41.566Z,47.10
2019-05-09T13:37:11.955Z,47.10
2019-05-09T13:39:42.964Z,47.10
2019-05-09T13:42:13.461Z,47.10
2019-05-09T13:44:43.916Z,47.10
2019-05-09T13:47:14.313Z,47.10
2019-05-09T13:49:45.091Z,47.10
2019-05-09T13:52:17.727Z,47.10
2019-05-09T13:54:48.433Z,47.10
2019-05-09T13:57:19.498Z,47.10
2019-05-09T13:59:50.345Z,47.10
2019-05-09T14:02:20.858Z,47.10
2019-05-09T14:04:51.322Z,47.10
2019-05-09T14:07:22.005Z,47.10
2019-05-09T14:09:52.603Z,47.10
2019-05-09T14:12:24.205Z,47.10
2019-05-09T14:14:54.916Z,47.10
2019-05-09T14:17:44.828Z,47.10
2019-05-09T14:19:58.753Z,47.10
2019-05-09T14:22:29.408Z,47.10
2019-05-09T14:24:59.845Z,47.10
2019-05-09T14:27:30.771Z,47.10
2019-05-09T14:30:01.319Z,47.10
2019-05-09T14:32:34.893Z,47.20
2019-05-09T14:35:03.743Z,47.10
2019-05-09T14:37:34.156Z,47.10
2019-05-09T14:40:05.374Z,47.10
2019-05-09T14:42:36.246Z,47.10
2019-05-09T14:45:08.476Z,47.10
2019-05-09T14:47:42.254Z,47.20
2019-05-09T14:50:11.107Z,47.20
2019-05-09T14:52:42.066Z,47.20
2019-05-09T14:55:12.852Z,47.20
2019-05-09T14:57:43.371Z,47.20
2019-05-09T15:00:14.247Z,47.50
2019-05-09T15:02:45.828Z,47.20
2019-05-09T15:05:18.667Z,47.30
2019-05-09T15:07:48.542Z,47.40
2019-05-09T15:10:19.000Z,47.50
2019-05-09T15:12:49.456Z,47.50
2019-05-09T15:15:19.851Z,47.50
2019-05-09T15:17:50.835Z,47.50
2019-05-09T15:20:24.735Z,47.60
2019-05-09T15:22:55.412Z,47.60
2019-05-09T15:25:28.126Z,47.70
2019-05-09T15:27:58.339Z,47.70
2019-05-09T15:30:28.884Z,47.90
2019-05-09T15:32:59.314Z,47.80
2019-05-09T15:35:29.744Z,47.90
2019-05-09T15:38:00.820Z,47.90
2019-05-09T15:40:32.776Z,51.60
2019-05-09T15:43:03.293Z,53.50
2019-05-09T15:45:35.257Z,54.50
2019-05-09T15:48:07.689Z,55.20
2019-05-09T15:50:38.159Z,54.40
2019-05-09T15:53:08.715Z,54.40
2019-05-09T15:55:39.129Z,54.20
2019-05-09T15:58:09.611Z,54.00
2019-05-09T16:00:40.063Z,53.90
2019-05-09T16:03:10.435Z,53.90
2019-05-09T16:05:40.960Z,53.70
2019-05-09T16:08:11.639Z,53.60
2019-05-09T16:10:42.795Z,53.50
2019-05-09T16:13:13.339Z,53.40
2019-05-09T16:15:43.959Z,53.10
2019-05-09T16:18:14.390Z,53.40
2019-05-09T16:20:44.828Z,53.20
2019-05-09T16:23:15.246Z,53.80
2019-05-09T16:25:47.987Z,53.10
2019-05-09T16:28:18.834Z,53.20
2019-05-09T16:30:49.242Z,53.60
2019-05-09T16:33:19.738Z,54.10
2019-05-09T16:35:52.700Z,54.10
2019-05-09T16:38:22.074Z,53.80
2019-05-09T16:40:52.584Z,53.70
2019-05-09T16:43:22.995Z,53.80
2019-05-09T16:45:53.410Z,53.80
2019-05-09T16:48:23.803Z,53.60
2019-05-09T16:51:02.424Z,53.70
2019-05-09T16:53:27.831Z,53.80
2019-05-09T16:55:58.285Z,53.70
2019-05-09T16:58:28.800Z,53.80
2019-05-09T17:00:59.259Z,53.70
2019-05-09T17:03:29.703Z,53.70
2019-05-09T17:06:00.085Z,54.00
2019-05-09T17:08:30.527Z,54.00
2019-05-09T17:11:00.934Z,54.20
2019-05-09T17:13:31.345Z,54.20
2019-05-09T17:16:01.772Z,53.40
2019-05-09T17:18:32.280Z,53.90
2019-05-09T17:21:23.989Z,53.60
2019-05-09T17:23:52.228Z,53.60
2019-05-09T17:26:23.321Z,54.10
2019-05-09T17:28:54.683Z,54.20
2019-05-09T17:31:27.403Z,54.20
2019-05-09T17:33:58.186Z,54.10
2019-05-09T17:36:28.754Z,54.40
2019-05-09T17:38:59.207Z,54.50
2019-05-09T17:41:29.747Z,54.60
2019-05-09T17:44:01.154Z,54.60
2019-05-09T17:46:31.567Z,54.50
2019-05-09T17:49:01.986Z,54.50
2019-05-09T17:51:36.160Z,54.40
2019-05-09T17:54:04.317Z,54.30
2019-05-09T17:56:37.664Z,54.70
2019-05-09T17:59:08.603Z,54.40
2019-05-09T18:01:39.232Z,54.40
2019-05-09T18:04:09.654Z,54.40
2019-05-09T18:06:40.347Z,54.30
2019-05-09T18:09:10.952Z,54.20
2019-05-09T18:11:41.329Z,54.20
2019-05-09T18:14:11.935Z,54.00
2019-05-09T18:16:42.575Z,51.90
2019-05-09T18:19:18.368Z,50.40
2019-05-09T18:21:51.224Z,50.00
2019-05-09T18:24:21.558Z,51.20
2019-05-09T18:26:51.984Z,51.50
2019-05-09T18:29:22.408Z,51.90
2019-05-09T18:31:58.333Z,52.00
2019-05-09T18:34:28.925Z,52.10
2019-05-09T18:36:59.616Z,52.30
2019-05-09T18:39:30.030Z,51.10
2019-05-09T18:42:00.535Z,50.20
2019-05-09T18:44:30.962Z,49.40
2019-05-09T18:47:01.624Z,50.00
2019-05-09T18:49:32.174Z,51.50
2019-05-09T18:52:04.070Z,52.30
2019-05-09T18:54:34.740Z,51.90
2019-05-09T18:57:05.271Z,50.80
2019-05-09T18:59:35.772Z,50.40
2019-05-09T19:02:06.253Z,50.20
2019-05-09T19:04:37.254Z,52.90
2019-05-09T19:07:21.136Z,53.90
2019-05-09T19:09:40.047Z,54.00
2019-05-09T19:12:10.594Z,53.00
2019-05-09T19:14:41.049Z,52.20
2019-05-09T19:17:28.891Z,51.80
2019-05-09T19:20:09.827Z,52.40
2019-05-09T19:22:40.975Z,56.70
2019-05-09T19:25:11.504Z,58.00
2019-05-09T19:27:43.256Z,57.20
2019-05-09T19:30:13.703Z,55.10
2019-05-09T19:32:44.416Z,54.30
2019-05-09T19:35:15.054Z,53.70
2019-05-09T19:37:46.206Z,52.70
2019-05-09T19:40:20.016Z,52.30
2019-05-09T19:42:48.674Z,51.80
2019-05-09T19:45:19.210Z,51.90
2019-05-09T19:47:49.679Z,53.50
2019-05-09T19:50:20.076Z,53.60
2019-05-09T19:52:50.726Z,52.80
2019-05-09T19:55:21.373Z,51.90
2019-05-09T19:57:51.844Z,51.20
2019-05-09T20:00:22.458Z,50.70
2019-05-09T20:02:52.879Z,50.20
2019-05-09T20:05:23.285Z,49.90
2019-05-09T20:07:53.710Z,49.50
2019-05-09T20:10:25.625Z,49.30
2019-05-09T20:13:12.443Z,49.10
2019-05-09T20:15:42.856Z,49.80
2019-05-09T20:18:13.316Z,51.40
2019-05-09T20:20:43.778Z,51.70
2019-05-09T20:23:14.264Z,51.20
2019-05-09T20:25:44.781Z,50.30
2019-05-09T20:28:15.183Z,49.60
2019-05-09T20:30:45.619Z,49.30
2019-05-09T20:33:16.306Z,49.10
2019-05-09T20:35:47.411Z,50.20
2019-05-09T20:38:17.998Z,50.80
2019-05-09T20:40:48.671Z,51.10
2019-05-09T20:43:19.277Z,50.40
2019-05-09T20:45:49.845Z,49.70
2019-05-09T20:48:20.444Z,49.10
2019-05-09T20:50:51.502Z,48.70
2019-05-09T20:53:22.084Z,48.90
2019-05-09T20:55:52.764Z,50.10
2019-05-09T20:58:23.501Z,50.40
2019-05-09T21:00:54.089Z,50.90
2019-05-09T21:03:24.956Z,50.00
2019-05-09T21:05:55.929Z,49.50
2019-05-09T21:08:27.036Z,49.10
2019-05-09T21:10:57.947Z,49.20
2019-05-09T21:13:28.582Z,50.20
2019-05-09T21:15:59.236Z,51.10
2019-05-09T21:18:29.970Z,51.10
2019-05-09T21:21:01.374Z,50.50
2019-05-09T21:23:32.090Z,50.00
2019-05-09T21:26:02.785Z,49.70
2019-05-09T21:28:34.203Z,49.60
2019-05-09T21:31:04.897Z,49.30
2019-05-09T21:33:35.590Z,49.70
2019-05-09T21:36:06.055Z,50.80
2019-05-09T21:38:37.276Z,50.80
2019-05-09T21:41:07.648Z,51.00
2019-05-09T21:43:38.127Z,50.40
2019-05-09T21:46:08.552Z,49.80
2019-05-09T21:48:39.077Z,49.40
2019-05-09T21:51:09.527Z,48.50
2019-05-09T21:53:41.209Z,48.60
2019-05-09T21:56:11.941Z,48.60
2019-05-09T21:58:42.467Z,48.60
2019-05-09T22:01:16.134Z,50.10
2019-05-09T22:03:46.765Z,48.70
2019-05-09T22:06:17.181Z,48.10
2019-05-09T22:08:47.687Z,47.60
2019-05-09T22:11:18.079Z,47.40
2019-05-09T22:13:48.505Z,47.60
2019-05-09T22:16:19.567Z,47.60
2019-05-09T22:18:50.074Z,47.60
2019-05-09T22:21:23.658Z,48.80
2019-05-09T22:23:56.820Z,48.40
2019-05-09T22:26:26.244Z,48.00
2019-05-09T22:28:56.687Z,47.60
2019-05-09T22:31:27.171Z,47.60
2019-05-09T22:33:57.615Z,47.70
2019-05-09T22:36:29.387Z,47.70
2019-05-09T22:38:59.921Z,48.90
2019-05-09T22:41:30.482Z,48.80
2019-05-09T22:44:00.890Z,48.40
2019-05-09T22:46:31.452Z,48.00
2019-05-09T22:49:01.912Z,47.80
2019-05-09T22:51:32.675Z,47.70
2019-05-09T22:54:12.300Z,47.80
2019-05-09T22:56:35.477Z,47.80
2019-05-09T22:59:06.006Z,47.80
2019-05-09T23:01:36.611Z,48.20
2019-05-09T23:04:06.987Z,49.30
2019-05-09T23:06:37.449Z,48.90
2019-05-09T23:09:08.909Z,48.60
2019-05-09T23:11:39.304Z,48.30
2019-05-09T23:14:10.025Z,48.40
2019-05-09T23:16:41.655Z,48.40
2019-05-09T23:19:12.082Z,48.40
2019-05-09T23:21:42.604Z,49.30
2019-05-09T23:24:28.212Z,48.90
2019-05-09T23:26:49.562Z,48.50
2019-05-09T23:29:20.183Z,48.30
2019-05-09T23:31:55.045Z,48.50
2019-05-09T23:34:25.552Z,48.40
2019-05-09T23:36:55.985Z,48.30
2019-05-09T23:39:28.231Z,49.50
2019-05-09T23:41:58.658Z,49.40
2019-05-09T23:44:29.664Z,49.00
2019-05-09T23:47:02.867Z,48.70
2019-05-09T23:49:33.445Z,48.70
2019-05-09T23:52:04.158Z,48.70
2019-05-09T23:54:52.515Z,48.60
2019-05-09T23:57:40.403Z,49.60
